createdAt,value
2022-12-20T00:00:55.463Z,11.20
2022-12-20T00:01:57.886Z,10.02
2022-12-20T00:03:00.384Z,10.60
2022-12-20T00:04:07.900Z,10.88
2022-12-20T00:05:10.236Z,11.30
2022-12-20T00:06:13.237Z,11.45
2022-12-20T00:07:15.573Z,10.52
2022-12-20T00:08:17.891Z,10.43
2022-12-20T00:09:20.275Z,10.18
2022-12-20T00:10:22.545Z,8.77
2022-12-20T00:11:26.384Z,9.73
2022-12-20T00:12:28.704Z,10.38
2022-12-20T00:13:31.948Z,9.18
2022-12-20T00:14:34.257Z,9.15
2022-12-20T00:15:36.682Z,9.05
2022-12-20T00:16:39.068Z,9.57
2022-12-20T00:17:41.512Z,9.52
2022-12-20T00:18:44.952Z,10.20
2022-12-20T00:19:47.315Z,9.65
2022-12-20T00:20:57.430Z,8.70
2022-12-20T00:21:59.730Z,9.48
2022-12-20T00:23:02.721Z,8.30
2022-12-20T00:24:06.305Z,8.98
2022-12-20T00:25:08.848Z,9.32
2022-12-20T00:26:13.341Z,9.15
2022-12-20T00:27:15.631Z,8.73
2022-12-20T00:28:18.590Z,8.60
2022-12-20T00:29:21.091Z,8.73
2022-12-20T00:30:23.515Z,8.48
2022-12-20T00:31:27.899Z,8.77
2022-12-20T00:32:30.462Z,9.25
2022-12-20T00:33:37.222Z,9.00
2022-12-20T00:34:39.581Z,8.13
2022-12-20T00:35:44.734Z,8.73
2022-12-20T00:36:47.247Z,9.18
2022-12-20T00:37:49.539Z,8.48
2022-12-20T00:38:54.581Z,8.48
2022-12-20T00:39:57.498Z,8.27
2022-12-20T00:41:08.286Z,8.55
2022-12-20T00:42:12.123Z,8.52
2022-12-20T00:43:14.491Z,8.68
2022-12-20T00:44:17.014Z,8.88
2022-12-20T00:45:19.329Z,7.63
2022-12-20T00:46:23.363Z,8.55
2022-12-20T00:47:25.780Z,7.93
2022-12-20T00:48:29.290Z,8.15
2022-12-20T00:49:31.895Z,7.72
2022-12-20T00:50:34.331Z,8.00
2022-12-20T00:51:36.622Z,8.52
2022-12-20T00:52:38.984Z,8.32
2022-12-20T00:53:42.220Z,8.57
2022-12-20T00:54:44.497Z,7.63
2022-12-20T00:55:47.168Z,7.43
2022-12-20T00:56:49.543Z,7.03
2022-12-20T00:57:51.888Z,7.38
2022-12-20T00:58:54.433Z,8.65
2022-12-20T00:59:56.755Z,7.78
2022-12-20T01:00:59.264Z,7.60
2022-12-20T01:02:02.553Z,7.88
2022-12-20T01:03:06.327Z,7.70
2022-12-20T01:04:08.744Z,6.85
2022-12-20T01:05:11.099Z,6.60
2022-12-20T01:06:13.354Z,6.97
2022-12-20T01:07:16.456Z,7.68
2022-12-20T01:08:19.263Z,7.28
2022-12-20T01:09:21.535Z,7.68
2022-12-20T01:10:23.850Z,7.35
2022-12-20T01:11:32.063Z,7.05
2022-12-20T01:12:34.396Z,6.75
2022-12-20T01:13:40.439Z,7.13
2022-12-20T01:14:42.795Z,6.80
2022-12-20T01:15:45.850Z,6.55
2022-12-20T01:16:48.382Z,6.50
2022-12-20T01:17:51.457Z,7.13
2022-12-20T01:18:54.477Z,7.22
2022-12-20T01:19:57.320Z,6.57
2022-12-20T01:21:08.391Z,6.72
2022-12-20T01:22:10.999Z,6.00
2022-12-20T01:23:13.385Z,6.28
2022-12-20T01:24:17.914Z,6.38
2022-12-20T01:25:20.282Z,6.78
2022-12-20T01:26:25.665Z,6.82
2022-12-20T01:27:28.866Z,6.25
2022-12-20T01:28:32.396Z,6.50
2022-12-20T01:29:34.743Z,6.20
2022-12-20T01:30:40.765Z,6.30
2022-12-20T01:31:43.651Z,6.53
2022-12-20T01:32:46.051Z,6.65
2022-12-20T01:33:50.080Z,6.32
2022-12-20T01:34:54.160Z,6.95
2022-12-20T01:36:05.099Z,6.60
2022-12-20T01:37:07.605Z,6.75
2022-12-20T01:38:09.885Z,6.40
2022-12-20T01:39:15.352Z,6.18
2022-12-20T01:40:17.846Z,6.68
2022-12-20T01:41:22.175Z,6.32
2022-12-20T01:42:24.490Z,6.18
2022-12-20T01:43:52.272Z,6.15
2022-12-20T01:44:58.531Z,6.07
2022-12-20T01:46:01.538Z,6.05
2022-12-20T01:47:03.965Z,5.78
2022-12-20T01:48:07.333Z,5.70
2022-12-20T01:49:16.207Z,5.80
2022-12-20T01:50:19.019Z,5.95
2022-12-20T01:51:23.562Z,5.97
2022-12-20T01:52:34.453Z,15.63
2022-12-20T01:53:37.456Z,11.88
2022-12-20T01:55:00.609Z,14.82
2022-12-20T01:56:07.268Z,19.50
2022-12-20T01:57:19.636Z,16.98
2022-12-20T01:58:22.713Z,15.95
2022-12-20T01:59:26.150Z,16.73
2022-12-20T02:00:29.581Z,16.15
2022-12-20T02:01:32.186Z,16.33
2022-12-20T02:02:35.584Z,15.98
2022-12-20T02:03:38.076Z,15.88
2022-12-20T02:04:41.092Z,15.27
2022-12-20T02:05:45.963Z,14.73
2022-12-20T02:06:48.232Z,13.15
2022-12-20T02:07:53.997Z,16.98
2022-12-20T02:09:00.504Z,17.77
2022-12-20T02:10:05.911Z,14.05
2022-12-20T02:11:33.458Z,12.40
2022-12-20T02:12:46.412Z,10.25
2022-12-20T02:14:08.449Z,27.80
2022-12-20T02:15:25.527Z,19.92
2022-12-20T02:16:33.170Z,17.23
2022-12-20T02:18:21.211Z,14.77
2022-12-20T02:19:51.539Z,14.70
2022-12-20T02:21:14.729Z,12.82
2022-12-20T02:22:34.805Z,13.18
2022-12-20T02:23:57.817Z,12.85
2022-12-20T02:25:06.214Z,13.32
2022-12-20T02:26:24.690Z,11.52
2022-12-20T02:27:45.875Z,12.02
2022-12-20T02:28:57.617Z,11.45
2022-12-20T02:31:20.839Z,12.00
2022-12-20T02:32:36.760Z,12.18
2022-12-20T02:33:43.571Z,9.68
2022-12-20T02:34:46.649Z,9.40
2022-12-20T02:35:48.990Z,10.05
2022-12-20T02:36:52.065Z,9.77
2022-12-20T02:37:58.517Z,11.07
2022-12-20T02:39:00.917Z,9.55
2022-12-20T02:40:05.214Z,8.65
2022-12-20T02:41:32.166Z,9.77
2022-12-20T02:42:34.947Z,9.30
2022-12-20T02:43:57.872Z,9.38
2022-12-20T02:45:17.678Z,9.48
2022-12-20T02:46:23.904Z,8.57
2022-12-20T02:47:49.427Z,9.70
2022-12-20T02:48:54.114Z,9.20
2022-12-20T02:49:57.229Z,87.13
2022-12-20T02:51:01.471Z,42.55
2022-12-20T02:52:05.326Z,131.05
2022-12-20T02:53:09.167Z,117.53
2022-12-20T02:54:14.902Z,104.85
2022-12-20T02:55:18.432Z,76.93
2022-12-20T02:56:30.541Z,57.55
2022-12-20T02:57:38.273Z,52.35
2022-12-20T02:58:52.469Z,44.65
2022-12-20T03:00:02.304Z,36.90
2022-12-20T03:01:14.243Z,35.75
2022-12-20T03:02:17.608Z,32.75
2022-12-20T03:03:24.400Z,28.83
2022-12-20T03:04:31.118Z,26.65
2022-12-20T03:05:38.413Z,26.35
2022-12-20T03:07:01.694Z,24.50
2022-12-20T03:08:04.251Z,23.55
2022-12-20T03:09:06.627Z,24.10
2022-12-20T03:10:11.613Z,22.10
2022-12-20T03:11:15.092Z,23.00
2022-12-20T03:12:17.543Z,23.13
2022-12-20T03:13:21.011Z,21.80
2022-12-20T03:14:30.588Z,21.70
2022-12-20T03:15:35.117Z,19.75
2022-12-20T03:16:38.911Z,19.42
2022-12-20T03:17:42.673Z,20.02
2022-12-20T03:18:46.041Z,20.45
2022-12-20T03:19:48.506Z,19.92
2022-12-20T03:20:50.903Z,20.00
2022-12-20T03:21:53.426Z,18.70
2022-12-20T03:22:55.808Z,18.85
2022-12-20T03:23:58.176Z,18.35
2022-12-20T03:25:01.180Z,18.17
2022-12-20T03:26:05.774Z,19.05
2022-12-20T03:27:13.237Z,17.15
2022-12-20T03:28:15.961Z,18.50
2022-12-20T03:29:18.670Z,17.10
2022-12-20T03:30:21.113Z,17.00
2022-12-20T03:31:23.505Z,17.65
2022-12-20T03:32:29.227Z,17.92
2022-12-20T03:33:31.710Z,17.63
2022-12-20T03:34:37.103Z,16.63
2022-12-20T03:35:39.899Z,16.83
2022-12-20T03:36:42.365Z,16.20
2022-12-20T03:37:44.975Z,18.02
2022-12-20T03:38:47.539Z,16.67
2022-12-20T03:39:49.958Z,18.67
2022-12-20T03:40:52.464Z,16.52
2022-12-20T03:41:57.306Z,18.10
2022-12-20T03:42:59.583Z,18.25
2022-12-20T03:44:02.462Z,13.15
2022-12-20T03:45:05.527Z,54.60
2022-12-20T03:46:08.866Z,58.63
2022-12-20T03:47:13.734Z,41.00
2022-12-20T03:48:16.135Z,30.90
2022-12-20T03:49:18.623Z,31.38
2022-12-20T03:50:24.909Z,29.33
2022-12-20T03:51:27.217Z,26.17
2022-12-20T03:52:29.736Z,25.70
2022-12-20T03:53:32.066Z,24.52
2022-12-20T03:54:34.580Z,23.50
2022-12-20T03:55:45.746Z,23.25
2022-12-20T03:56:48.988Z,22.40
2022-12-20T03:57:51.409Z,21.90
2022-12-20T03:59:04.305Z,22.13
2022-12-20T04:00:07.782Z,20.02
2022-12-20T04:01:28.410Z,20.98
2022-12-20T04:02:31.319Z,20.75
2022-12-20T04:03:33.824Z,20.90
2022-12-20T04:04:36.238Z,21.25
2022-12-20T04:05:38.609Z,20.55
2022-12-20T04:06:42.421Z,19.65
2022-12-20T04:07:45.299Z,20.85
2022-12-20T04:08:48.605Z,18.38
2022-12-20T04:09:58.278Z,20.13
2022-12-20T04:11:19.145Z,19.35
2022-12-20T04:12:40.215Z,22.77
2022-12-20T04:13:50.409Z,20.13
2022-12-20T04:14:52.826Z,20.63
2022-12-20T04:15:59.960Z,20.48
2022-12-20T04:17:05.585Z,19.70
2022-12-20T04:18:08.599Z,21.33
2022-12-20T04:19:12.253Z,20.25
2022-12-20T04:20:21.047Z,20.52
2022-12-20T04:21:32.846Z,22.17
2022-12-20T04:22:35.230Z,20.70
2022-12-20T04:23:41.995Z,20.65
2022-12-20T04:24:44.744Z,20.90
2022-12-20T04:26:09.047Z,20.52
2022-12-20T04:27:11.629Z,19.90
2022-12-20T04:28:14.879Z,20.70
2022-12-20T04:29:17.214Z,20.58
2022-12-20T04:30:21.032Z,19.63
2022-12-20T04:31:24.615Z,19.05
2022-12-20T04:32:28.509Z,20.75
2022-12-20T04:33:31.451Z,19.92
2022-12-20T04:34:34.450Z,19.85
2022-12-20T04:35:37.618Z,21.30
2022-12-20T04:36:40.160Z,19.75
2022-12-20T04:37:47.614Z,18.65
2022-12-20T04:38:50.558Z,19.73
2022-12-20T04:39:53.098Z,18.83
2022-12-20T04:40:59.181Z,18.25
2022-12-20T04:42:04.718Z,19.90
2022-12-20T04:43:07.035Z,18.90
2022-12-20T04:44:10.380Z,18.30
2022-12-20T04:45:13.606Z,18.95
2022-12-20T04:46:16.406Z,18.98
2022-12-20T04:47:19.162Z,20.13
2022-12-20T04:48:55.280Z,17.50
2022-12-20T04:49:44.624Z,18.05
2022-12-20T04:50:50.936Z,18.75
2022-12-20T04:51:53.359Z,18.77
2022-12-20T04:53:14.924Z,16.90
2022-12-20T04:54:17.922Z,18.58
2022-12-20T04:55:38.308Z,18.70
2022-12-20T04:56:40.639Z,19.00
2022-12-20T04:57:46.044Z,18.90
2022-12-20T04:58:50.328Z,17.90
2022-12-20T04:59:52.863Z,18.83
2022-12-20T05:00:55.438Z,19.42
2022-12-20T05:02:01.795Z,18.45
2022-12-20T05:03:27.410Z,18.42
2022-12-20T05:04:37.039Z,17.80
2022-12-20T05:05:40.163Z,18.25
2022-12-20T05:06:42.618Z,16.25
2022-12-20T05:07:45.587Z,16.70
2022-12-20T05:08:48.217Z,17.60
2022-12-20T05:09:50.653Z,16.20
2022-12-20T05:10:53.063Z,13.18
2022-12-20T05:11:56.671Z,13.63
2022-12-20T05:13:01.784Z,18.30
2022-12-20T05:14:13.345Z,17.35
2022-12-20T05:15:15.781Z,15.80
2022-12-20T05:16:18.949Z,17.13
2022-12-20T05:17:21.891Z,15.38
2022-12-20T05:18:26.053Z,18.02
2022-12-20T05:19:33.524Z,16.60
2022-12-20T05:20:36.252Z,17.40
2022-12-20T05:22:08.189Z,17.85
2022-12-20T05:23:32.094Z,18.45
2022-12-20T05:25:03.471Z,18.10
2022-12-20T05:26:18.991Z,16.05
2022-12-20T05:27:22.710Z,19.75
2022-12-20T05:28:25.652Z,17.55
2022-12-20T05:29:27.951Z,17.92
2022-12-20T05:30:31.695Z,15.65
2022-12-20T05:31:34.286Z,16.77
2022-12-20T05:32:37.531Z,14.98
2022-12-20T05:33:39.930Z,10.93
2022-12-20T05:34:43.837Z,10.80
2022-12-20T05:35:46.331Z,14.85
2022-12-20T05:36:50.562Z,14.90
2022-12-20T05:37:53.811Z,12.63
2022-12-20T05:39:03.576Z,13.18
2022-12-20T05:40:08.875Z,14.75
2022-12-20T05:41:11.586Z,15.07
2022-12-20T05:42:14.262Z,14.98
2022-12-20T05:43:17.510Z,14.43
2022-12-20T05:44:22.202Z,15.30
2022-12-20T05:45:27.255Z,14.10
2022-12-20T05:46:36.207Z,13.68
2022-12-20T05:47:43.541Z,14.20
2022-12-20T05:48:47.589Z,15.63
2022-12-20T05:49:50.047Z,13.85
2022-12-20T05:50:52.797Z,14.20
2022-12-20T05:52:05.948Z,13.45
2022-12-20T05:53:14.573Z,14.95
2022-12-20T05:54:22.203Z,14.38
2022-12-20T05:55:32.312Z,14.55
2022-12-20T05:56:35.099Z,15.43
2022-12-20T05:57:37.486Z,15.27
2022-12-20T05:58:40.494Z,15.05
2022-12-20T05:59:44.832Z,14.07
2022-12-20T06:00:52.807Z,14.82
2022-12-20T06:01:55.848Z,15.02
2022-12-20T06:02:59.737Z,14.57
2022-12-20T06:04:02.590Z,15.40
2022-12-20T06:05:05.849Z,14.82
2022-12-20T06:06:14.175Z,13.55
2022-12-20T06:07:19.487Z,14.93
2022-12-20T06:08:25.153Z,12.73
2022-12-20T06:09:30.059Z,13.48
2022-12-20T06:10:39.286Z,13.30
2022-12-20T06:11:42.519Z,12.63
2022-12-20T06:12:47.454Z,14.57
2022-12-20T06:13:50.652Z,15.82
2022-12-20T06:14:53.371Z,15.90
2022-12-20T06:15:55.917Z,13.05
2022-12-20T06:16:58.588Z,12.80
2022-12-20T06:18:00.918Z,15.48
2022-12-20T06:19:03.214Z,26.63
2022-12-20T06:20:06.383Z,19.60
2022-12-20T06:21:08.678Z,18.02
2022-12-20T06:22:11.293Z,15.98
2022-12-20T06:23:18.157Z,13.82
2022-12-20T06:24:30.064Z,13.45
2022-12-20T06:25:32.961Z,11.45
2022-12-20T06:26:38.364Z,11.95
2022-12-20T06:27:42.776Z,12.20
2022-12-20T06:28:57.015Z,12.68
2022-12-20T06:30:14.000Z,12.55
2022-12-20T06:31:29.200Z,13.15
2022-12-20T06:32:31.938Z,13.98
2022-12-20T06:33:34.510Z,13.27
2022-12-20T06:34:37.311Z,13.43
2022-12-20T06:35:40.431Z,14.45
2022-12-20T06:36:42.956Z,12.82
2022-12-20T06:37:51.666Z,13.60
2022-12-20T06:38:54.269Z,14.55
2022-12-20T06:39:56.711Z,13.00
2022-12-20T06:40:59.122Z,14.70
2022-12-20T06:42:01.459Z,13.50
2022-12-20T06:43:03.944Z,14.75
2022-12-20T06:44:06.595Z,13.63
2022-12-20T06:45:09.544Z,12.75
2022-12-20T06:46:12.136Z,13.05
2022-12-20T06:47:14.619Z,13.10
2022-12-20T06:48:17.020Z,13.75
2022-12-20T06:49:19.844Z,13.55
2022-12-20T06:50:23.604Z,14.43
2022-12-20T06:51:26.265Z,12.68
2022-12-20T06:52:29.862Z,12.82
2022-12-20T06:53:32.237Z,13.68
2022-12-20T06:54:35.467Z,13.73
2022-12-20T06:55:39.446Z,12.57
2022-12-20T06:56:41.975Z,12.95
2022-12-20T06:57:46.728Z,12.57
2022-12-20T06:58:51.051Z,12.32
2022-12-20T06:59:53.499Z,11.63
2022-12-20T07:00:55.921Z,11.80
2022-12-20T07:01:58.800Z,12.68
2022-12-20T07:03:01.643Z,11.23
2022-12-20T07:04:04.403Z,11.88
2022-12-20T07:05:07.079Z,12.68
2022-12-20T07:06:09.412Z,12.27
2022-12-20T07:07:13.438Z,10.95
2022-12-20T07:08:15.732Z,12.23
2022-12-20T07:09:18.290Z,12.82
2022-12-20T07:10:20.821Z,11.55
2022-12-20T07:11:23.192Z,11.50
2022-12-20T07:12:25.532Z,13.07
2022-12-20T07:13:28.158Z,12.73
2022-12-20T07:14:30.543Z,11.70
2022-12-20T07:15:32.957Z,17.52
2022-12-20T07:16:36.301Z,16.67
2022-12-20T07:17:39.309Z,17.95
2022-12-20T07:18:41.632Z,13.90
2022-12-20T07:19:50.291Z,14.02
2022-12-20T07:20:53.428Z,12.45
2022-12-20T07:21:56.167Z,11.23
2022-12-20T07:22:58.690Z,10.93
2022-12-20T07:24:01.386Z,11.80
2022-12-20T07:25:04.149Z,12.07
2022-12-20T07:26:06.533Z,11.18
2022-12-20T07:27:11.125Z,10.63
2022-12-20T07:28:13.362Z,11.90
2022-12-20T07:29:16.269Z,11.57
2022-12-20T07:30:20.267Z,13.07
2022-12-20T07:31:22.869Z,10.90
2022-12-20T07:32:25.484Z,11.75
2022-12-20T07:33:28.884Z,11.90
2022-12-20T07:34:31.253Z,11.35
2022-12-20T07:35:33.606Z,11.68
2022-12-20T07:36:36.124Z,11.20
2022-12-20T07:37:39.410Z,11.43
2022-12-20T07:38:42.408Z,11.43
2022-12-20T07:39:44.971Z,12.10
2022-12-20T07:40:47.430Z,11.95
2022-12-20T07:41:53.221Z,11.50
2022-12-20T07:42:58.049Z,11.40
2022-12-20T07:44:00.619Z,9.48
2022-12-20T07:45:02.941Z,11.52
2022-12-20T07:46:06.989Z,11.70
2022-12-20T07:47:10.023Z,11.10
2022-12-20T07:48:16.296Z,10.00
2022-12-20T07:50:28.358Z,10.27
2022-12-20T07:51:40.587Z,11.15
2022-12-20T07:52:45.846Z,10.57
2022-12-20T07:53:54.495Z,12.70
2022-12-20T07:55:03.137Z,10.77
2022-12-20T07:56:08.039Z,9.82
2022-12-20T07:57:15.666Z,12.60
2022-12-20T07:58:19.138Z,12.98
2022-12-20T07:59:27.200Z,11.88
2022-12-20T08:00:29.947Z,10.23
2022-12-20T08:01:32.654Z,10.90
2022-12-20T08:02:44.314Z,11.00
2022-12-20T08:03:51.130Z,10.32
2022-12-20T08:04:55.367Z,9.77
2022-12-20T08:06:03.779Z,10.38
2022-12-20T08:07:08.030Z,9.80
2022-12-20T08:08:10.572Z,10.43
2022-12-20T08:09:14.400Z,10.23
2022-12-20T08:10:19.506Z,9.73
2022-12-20T08:11:23.585Z,11.05
2022-12-20T08:12:27.783Z,9.65
2022-12-20T08:13:31.500Z,9.40
2022-12-20T08:14:33.958Z,9.32
2022-12-20T08:15:36.767Z,8.82
2022-12-20T08:16:39.243Z,10.65
2022-12-20T08:17:41.672Z,10.25
2022-12-20T08:18:44.661Z,10.80
2022-12-20T08:19:47.588Z,9.88
2022-12-20T08:20:50.158Z,14.75
2022-12-20T08:21:52.653Z,11.82
2022-12-20T08:22:55.054Z,10.65
2022-12-20T08:23:57.473Z,10.32
2022-12-20T08:24:59.878Z,9.65
2022-12-20T08:26:02.528Z,10.63
2022-12-20T08:27:04.843Z,11.75
2022-12-20T08:28:07.567Z,10.82
2022-12-20T08:29:10.413Z,22.05
2022-12-20T08:30:13.572Z,14.18
2022-12-20T08:31:16.317Z,11.25
2022-12-20T08:32:18.715Z,31.85
2022-12-20T08:33:21.128Z,23.90
2022-12-20T08:34:23.489Z,20.52
2022-12-20T08:35:25.974Z,13.85
2022-12-20T08:36:28.307Z,12.05
2022-12-20T08:37:30.745Z,11.80
2022-12-20T08:38:34.187Z,12.10
2022-12-20T08:39:37.606Z,12.77
2022-12-20T08:40:39.959Z,10.68
2022-12-20T08:41:42.341Z,11.10
2022-12-20T08:42:44.902Z,10.25
2022-12-20T08:43:47.681Z,9.90
2022-12-20T08:44:50.174Z,9.55
2022-12-20T08:45:54.659Z,9.30
2022-12-20T08:46:57.013Z,8.82
2022-12-20T08:47:59.634Z,9.35
2022-12-20T08:49:02.004Z,9.30
2022-12-20T08:50:04.814Z,9.30
2022-12-20T08:51:09.893Z,8.15
2022-12-20T08:52:12.191Z,8.18
2022-12-20T08:53:14.577Z,8.82
2022-12-20T08:54:17.549Z,9.25
2022-12-20T08:55:23.378Z,8.68
2022-12-20T08:56:30.024Z,10.02
2022-12-20T08:57:32.627Z,8.75
2022-12-20T08:58:36.049Z,10.40
2022-12-20T08:59:38.372Z,9.68
2022-12-20T09:00:40.806Z,10.30
2022-12-20T09:01:43.319Z,8.45
2022-12-20T09:02:47.333Z,8.80
2022-12-20T09:03:49.944Z,7.55
2022-12-20T09:04:52.386Z,8.65
2022-12-20T09:05:55.411Z,10.73
2022-12-20T09:06:57.958Z,8.88
2022-12-20T09:08:00.334Z,7.65
2022-12-20T09:09:03.470Z,8.20
2022-12-20T09:10:06.727Z,7.00
2022-12-20T09:11:15.065Z,6.57
2022-12-20T09:12:17.492Z,6.22
2022-12-20T09:13:21.710Z,7.28
2022-12-20T09:14:24.591Z,8.45
2022-12-20T09:15:28.037Z,10.90
2022-12-20T09:16:32.545Z,25.85
2022-12-20T09:17:35.013Z,51.63
2022-12-20T09:18:37.378Z,41.85
2022-12-20T09:19:39.926Z,27.80
2022-12-20T09:20:44.867Z,18.50
2022-12-20T09:21:47.236Z,13.45
2022-12-20T09:22:49.789Z,11.50
2022-12-20T09:23:54.573Z,11.48
2022-12-20T09:24:57.206Z,9.52
2022-12-20T09:26:16.707Z,9.30
2022-12-20T09:27:19.100Z,8.50
2022-12-20T09:28:22.360Z,8.27
2022-12-20T09:29:29.540Z,8.10
2022-12-20T09:30:34.686Z,7.55
2022-12-20T09:31:37.444Z,7.15
2022-12-20T09:32:40.014Z,7.07
2022-12-20T09:33:42.987Z,6.13
2022-12-20T09:34:45.375Z,6.75
2022-12-20T09:35:48.022Z,6.97
2022-12-20T09:36:50.384Z,6.90
2022-12-20T09:37:52.887Z,6.75
2022-12-20T09:38:55.911Z,6.43
2022-12-20T09:39:58.722Z,8.32
2022-12-20T09:41:07.015Z,7.90
2022-12-20T09:42:09.810Z,7.35
2022-12-20T09:43:13.771Z,8.27
2022-12-20T09:44:35.978Z,9.25
2022-12-20T09:45:38.972Z,8.02
2022-12-20T09:46:42.587Z,7.60
2022-12-20T09:47:46.305Z,8.25
2022-12-20T09:48:49.091Z,6.65
2022-12-20T09:49:54.941Z,6.47
2022-12-20T09:50:57.272Z,6.38
2022-12-20T09:52:05.610Z,7.63
2022-12-20T09:53:30.856Z,8.38
2022-12-20T09:54:47.760Z,8.77
2022-12-20T09:55:56.393Z,8.60
2022-12-20T09:57:09.539Z,8.98
2022-12-20T09:58:44.546Z,8.25
2022-12-20T09:59:49.834Z,7.22
2022-12-20T10:00:54.616Z,6.60
2022-12-20T10:02:08.048Z,7.05
2022-12-20T10:03:25.333Z,7.82
2022-12-20T10:04:31.225Z,27.17
2022-12-20T10:05:50.017Z,60.70
2022-12-20T10:07:32.473Z,34.95
2022-12-20T10:10:20.648Z,26.08
2022-12-20T10:11:50.250Z,18.85
2022-12-20T10:13:10.890Z,13.80
2022-12-20T10:14:53.688Z,12.95
2022-12-20T10:16:22.249Z,11.23
2022-12-20T10:17:43.251Z,11.73
2022-12-20T10:19:10.463Z,9.27
2022-12-20T10:20:50.343Z,9.27
2022-12-20T10:22:21.111Z,9.30
2022-12-20T10:23:33.616Z,8.20
2022-12-20T10:24:37.134Z,8.25
2022-12-20T10:25:41.619Z,9.55
2022-12-20T10:26:45.612Z,8.27
2022-12-20T10:27:49.748Z,8.80
2022-12-20T10:28:54.422Z,8.70
2022-12-20T10:29:57.273Z,8.57
2022-12-20T10:31:06.406Z,8.30
2022-12-20T10:32:18.659Z,7.28
2022-12-20T10:33:23.416Z,7.97
2022-12-20T10:34:27.848Z,8.13
2022-12-20T10:35:40.506Z,7.78
2022-12-20T10:36:42.859Z,7.40
2022-12-20T10:38:08.904Z,7.80
2022-12-20T10:39:11.895Z,6.53
2022-12-20T10:41:01.521Z,6.93
2022-12-20T10:41:53.312Z,6.65
2022-12-20T10:42:56.144Z,7.20
2022-12-20T10:44:04.357Z,7.22
2022-12-20T10:45:15.624Z,7.45
2022-12-20T10:46:18.124Z,6.88
2022-12-20T10:47:35.451Z,7.68
2022-12-20T10:48:40.981Z,7.00
2022-12-20T10:49:43.313Z,7.82
2022-12-20T10:50:56.393Z,9.07
2022-12-20T10:52:07.770Z,10.00
2022-12-20T10:54:38.169Z,8.68
2022-12-20T10:55:42.203Z,8.35
2022-12-20T10:56:59.099Z,8.18
2022-12-20T10:58:12.608Z,7.30
2022-12-20T10:59:17.801Z,6.78
2022-12-20T11:00:30.946Z,29.65
2022-12-20T11:01:37.457Z,33.42
2022-12-20T11:02:42.769Z,33.17
2022-12-20T11:03:55.692Z,28.75
2022-12-20T11:05:13.101Z,34.97
2022-12-20T11:06:17.455Z,20.50
2022-12-20T11:07:26.795Z,16.20
2022-12-20T11:08:40.939Z,12.77
2022-12-20T11:09:55.301Z,26.50
2022-12-20T11:11:19.483Z,27.65
2022-12-20T11:12:21.922Z,18.52
2022-12-20T11:13:26.800Z,18.80
2022-12-20T11:14:38.408Z,16.67
2022-12-20T11:15:50.369Z,11.82
2022-12-20T11:16:55.168Z,11.45
2022-12-20T11:18:09.212Z,10.45
2022-12-20T11:19:35.046Z,10.30
2022-12-20T11:20:52.720Z,10.05
2022-12-20T11:22:41.568Z,9.32
2022-12-20T11:24:09.287Z,9.70
2022-12-20T11:25:11.669Z,9.30
2022-12-20T11:26:41.444Z,9.45
2022-12-20T11:28:08.020Z,9.90
2022-12-20T11:29:38.113Z,9.93
2022-12-20T11:31:04.512Z,9.77
2022-12-20T11:32:36.923Z,9.25
2022-12-20T11:34:14.494Z,9.40
2022-12-20T11:35:30.765Z,9.40
2022-12-20T11:37:07.161Z,9.55
2022-12-20T11:38:23.751Z,9.27
2022-12-20T11:39:37.413Z,10.25
2022-12-20T11:40:51.404Z,10.23
2022-12-20T11:42:11.543Z,8.93
2022-12-20T11:43:25.685Z,9.65
2022-12-20T11:45:03.745Z,9.32
2022-12-20T11:46:20.850Z,15.75
2022-12-20T11:47:40.616Z,12.07
2022-12-20T11:49:08.637Z,21.35
2022-12-20T11:50:29.608Z,20.38
2022-12-20T11:52:10.559Z,15.30
2022-12-20T11:53:31.909Z,15.82
2022-12-20T11:54:58.557Z,13.57
2022-12-20T11:56:08.779Z,10.48
2022-12-20T11:57:23.320Z,10.70
2022-12-20T11:58:46.190Z,10.75
2022-12-20T11:59:53.255Z,10.32
2022-12-20T12:01:01.950Z,10.10
2022-12-20T12:02:26.009Z,9.82
2022-12-20T12:03:35.928Z,9.38
2022-12-20T12:04:53.551Z,9.65
2022-12-20T12:06:19.753Z,9.60
2022-12-20T12:07:33.465Z,8.88
2022-12-20T12:08:39.154Z,9.98
2022-12-20T12:10:05.943Z,9.48
2022-12-20T12:11:39.857Z,8.75
2022-12-20T12:12:45.249Z,8.98
2022-12-20T12:13:48.892Z,9.35
2022-12-20T12:14:59.959Z,9.02
2022-12-20T12:16:20.359Z,10.00
2022-12-20T12:18:00.524Z,9.13
2022-12-20T12:19:03.924Z,11.23
2022-12-20T12:20:35.911Z,9.73
2022-12-20T12:22:48.948Z,10.85
2022-12-20T12:23:59.587Z,10.25
2022-12-20T12:25:06.348Z,10.02
2022-12-20T12:26:35.983Z,8.85
2022-12-20T12:27:39.098Z,8.82
2022-12-20T12:28:41.662Z,8.63
2022-12-20T12:29:44.291Z,8.95
2022-12-20T12:31:00.304Z,8.75
2022-12-20T12:32:17.052Z,27.83
2022-12-20T12:33:38.105Z,32.75
2022-12-20T12:36:30.669Z,16.27
2022-12-20T12:38:13.509Z,14.68
2022-12-20T12:39:42.383Z,14.65
2022-12-20T12:41:12.151Z,11.13
2022-12-20T12:42:30.349Z,10.65
2022-12-20T12:43:44.229Z,9.27
2022-12-20T12:44:59.613Z,9.18
2022-12-20T12:46:14.025Z,8.48
2022-12-20T12:47:23.535Z,8.98
2022-12-20T12:48:42.027Z,8.43
2022-12-20T12:49:50.206Z,8.10
2022-12-20T12:50:56.970Z,7.65
2022-12-20T12:52:02.884Z,8.32
2022-12-20T12:53:28.183Z,7.30
2022-12-20T12:54:38.280Z,7.65
2022-12-20T12:55:45.491Z,8.15
2022-12-20T12:56:49.231Z,8.07
2022-12-20T12:57:58.574Z,7.85
2022-12-20T12:59:06.764Z,7.47
2022-12-20T13:00:49.356Z,7.57
2022-12-20T13:01:52.154Z,7.35
2022-12-20T13:02:54.971Z,7.00
2022-12-20T13:04:00.486Z,7.55
2022-12-20T13:05:12.699Z,7.28
2022-12-20T13:06:25.147Z,7.43
2022-12-20T13:07:33.551Z,7.95
2022-12-20T13:09:09.410Z,7.15
2022-12-20T13:10:14.642Z,7.68
2022-12-20T13:11:31.440Z,7.53
2022-12-20T13:12:36.630Z,7.57
2022-12-20T13:13:39.035Z,8.95
2022-12-20T13:14:41.364Z,7.88
2022-12-20T13:15:43.976Z,7.95
2022-12-20T13:18:13.546Z,7.70
2022-12-20T13:19:25.018Z,7.15
2022-12-20T13:21:37.157Z,7.30
2022-12-20T13:22:39.564Z,7.15
2022-12-20T13:23:42.061Z,7.47
2022-12-20T13:25:00.025Z,7.13
2022-12-20T13:26:42.327Z,6.25
2022-12-20T13:28:47.486Z,7.40
2022-12-20T13:30:26.462Z,8.15
2022-12-20T13:31:33.645Z,7.60
2022-12-20T13:32:48.157Z,7.30
2022-12-20T13:33:54.111Z,7.50
2022-12-20T13:34:58.156Z,7.72
2022-12-20T13:36:11.490Z,7.13
2022-12-20T13:38:06.143Z,7.60
2022-12-20T13:39:21.223Z,7.75
2022-12-20T13:40:34.791Z,6.15
2022-12-20T13:41:46.867Z,7.15
2022-12-20T13:42:53.725Z,7.03
2022-12-20T13:44:00.100Z,6.82
2022-12-20T13:45:06.588Z,6.93
2022-12-20T13:46:11.782Z,7.72
2022-12-20T13:47:32.830Z,7.57
2022-12-20T13:48:37.941Z,7.88
2022-12-20T13:49:42.480Z,6.80
2022-12-20T13:50:52.775Z,120.60
2022-12-20T13:52:18.077Z,122.72
2022-12-20T13:53:23.833Z,76.25
2022-12-20T13:54:27.508Z,105.65
2022-12-20T13:55:34.962Z,76.95
2022-12-20T13:56:49.380Z,70.03
2022-12-20T13:57:52.628Z,67.20
2022-12-20T13:59:03.176Z,63.15
2022-12-20T14:00:13.778Z,55.35
2022-12-20T14:01:24.575Z,47.05
2022-12-20T14:02:33.032Z,37.55
2022-12-20T14:03:42.153Z,34.33
2022-12-20T14:04:49.922Z,33.75
2022-12-20T14:05:58.378Z,30.85
2022-12-20T14:07:02.283Z,31.75
2022-12-20T14:08:21.099Z,31.20
2022-12-20T14:09:37.739Z,31.65
2022-12-20T14:10:40.146Z,29.67
2022-12-20T14:11:48.549Z,32.40
2022-12-20T14:12:54.649Z,29.13
2022-12-20T14:13:56.969Z,30.35
2022-12-20T14:14:59.589Z,31.50
2022-12-20T14:16:15.802Z,31.70
2022-12-20T14:17:33.554Z,32.92
2022-12-20T14:18:35.973Z,32.10
2022-12-20T14:19:38.348Z,32.35
2022-12-20T14:20:40.808Z,30.70
2022-12-20T14:21:45.887Z,30.67
2022-12-20T14:22:57.916Z,30.75
2022-12-20T14:24:04.206Z,31.40
2022-12-20T14:25:07.843Z,27.75
2022-12-20T14:26:13.664Z,29.05
2022-12-20T14:27:16.008Z,26.83
2022-12-20T14:28:40.459Z,27.08
2022-12-20T14:29:45.489Z,27.50
2022-12-20T14:30:48.023Z,26.23
2022-12-20T14:31:51.017Z,25.38
2022-12-20T14:32:55.785Z,25.92
2022-12-20T14:34:13.402Z,27.17
2022-12-20T14:35:21.947Z,27.38
2022-12-20T14:36:24.513Z,25.60
2022-12-20T14:37:38.360Z,26.67
2022-12-20T14:38:42.204Z,25.17
2022-12-20T14:40:16.563Z,25.20
2022-12-20T14:41:39.291Z,25.23
2022-12-20T14:42:41.838Z,25.90
2022-12-20T14:43:44.490Z,23.95
2022-12-20T14:44:47.484Z,24.25
2022-12-20T14:45:50.020Z,24.60
2022-12-20T14:46:58.005Z,22.75
2022-12-20T14:48:06.675Z,21.98
2022-12-20T14:49:22.090Z,24.40
2022-12-20T14:50:52.731Z,23.65
2022-12-20T14:52:08.361Z,20.45
2022-12-20T14:53:20.387Z,22.85
2022-12-20T14:55:52.844Z,20.98
2022-12-20T14:56:55.568Z,19.92
2022-12-20T14:57:58.220Z,22.75